sensor_id;sensor_type;location;lat;lon;timestamp;P1;durP1;ratioP1;P2;durP2;ratioP2
20177;SDS011;10248;51.218;20.866;2022-09-04T00:00:07;3.70;;;3.60;;
20177;SDS011;10248;51.218;20.866;2022-09-04T00:05:21;3.30;;;3.20;;
20177;SDS011;10248;51.218;20.866;2022-09-04T00:07:54;3.67;;;3.58;;
20177;SDS011;10248;51.218;20.866;2022-09-04T00:10:31;3.70;;;3.60;;
20177;SDS011;10248;51.218;20.866;2022-09-04T00:13:04;3.63;;;3.53;;
20177;SDS011;10248;51.218;20.866;2022-09-04T00:15:37;3.25;;;3.15;;
20177;SDS011;10248;51.218;20.866;2022-09-04T00:18:08;3.38;;;3.28;;
20177;SDS011;10248;51.218;20.866;2022-09-04T00:20:39;3.13;;;3.03;;
20177;SDS011;10248;51.218;20.866;2022-09-04T00:23:11;3.47;;;3.38;;
20177;SDS011;10248;51.218;20.866;2022-09-04T00:25:47;3.40;;;3.30;;
20177;SDS011;10248;51.218;20.866;2022-09-04T00:28:24;3.53;;;3.42;;
20177;SDS011;10248;51.218;20.866;2022-09-04T00:30:59;3.40;;;3.30;;
20177;SDS011;10248;51.218;20.866;2022-09-04T00:33:35;3.50;;;3.40;;
20177;SDS011;10248;51.218;20.866;2022-09-04T00:36:07;3.25;;;3.15;;
20177;SDS011;10248;51.218;20.866;2022-09-04T00:38:37;3.42;;;3.33;;
20177;SDS011;10248;51.218;20.866;2022-09-04T00:41:12;3.28;;;3.17;;
20177;SDS011;10248;51.218;20.866;2022-09-04T00:43:53;3.33;;;3.22;;
20177;SDS011;10248;51.218;20.866;2022-09-04T00:46:38;3.30;;;3.20;;
20177;SDS011;10248;51.218;20.866;2022-09-04T00:52:28;3.40;;;3.30;;
20177;SDS011;10248;51.218;20.866;2022-09-04T00:55:06;3.70;;;3.60;;
20177;SDS011;10248;51.218;20.866;2022-09-04T00:57:47;3.20;;;3.10;;
20177;SDS011;10248;51.218;20.866;2022-09-04T01:00:27;3.08;;;2.97;;
20177;SDS011;10248;51.218;20.866;2022-09-04T01:05:51;3.42;;;3.33;;
20177;SDS011;10248;51.218;20.866;2022-09-04T01:08:46;3.40;;;3.30;;
20177;SDS011;10248;51.218;20.866;2022-09-04T01:11:26;3.65;;;3.55;;
20177;SDS011;10248;51.218;20.866;2022-09-04T01:14:02;3.25;;;3.15;;
20177;SDS011;10248;51.218;20.866;2022-09-04T01:16:40;3.10;;;3.00;;
20177;SDS011;10248;51.218;20.866;2022-09-04T01:19:14;3.30;;;3.20;;
20177;SDS011;10248;51.218;20.866;2022-09-04T01:21:58;3.10;;;3.00;;
20177;SDS011;10248;51.218;20.866;2022-09-04T01:24:37;3.22;;;3.13;;
20177;SDS011;10248;51.218;20.866;2022-09-04T01:27:17;3.30;;;3.20;;
20177;SDS011;10248;51.218;20.866;2022-09-04T01:29:52;3.17;;;3.08;;
20177;SDS011;10248;51.218;20.866;2022-09-04T01:32:28;3.25;;;3.15;;
20177;SDS011;10248;51.218;20.866;2022-09-04T01:35:04;3.40;;;3.30;;
20177;SDS011;10248;51.218;20.866;2022-09-04T01:37:42;3.17;;;3.08;;
20177;SDS011;10248;51.218;20.866;2022-09-04T01:40:20;3.30;;;3.20;;
20177;SDS011;10248;51.218;20.866;2022-09-04T01:43:03;3.50;;;3.40;;
20177;SDS011;10248;51.218;20.866;2022-09-04T01:45:36;3.30;;;3.20;;
20177;SDS011;10248;51.218;20.866;2022-09-04T01:48:26;3.20;;;3.10;;
20177;SDS011;10248;51.218;20.866;2022-09-04T01:50:59;3.30;;;3.20;;
20177;SDS011;10248;51.218;20.866;2022-09-04T01:53:30;3.38;;;3.28;;
20177;SDS011;10248;51.218;20.866;2022-09-04T01:56:06;3.50;;;3.40;;
20177;SDS011;10248;51.218;20.866;2022-09-04T01:58:39;3.35;;;3.25;;
20177;SDS011;10248;51.218;20.866;2022-09-04T02:01:12;3.40;;;3.30;;
20177;SDS011;10248;51.218;20.866;2022-09-04T02:03:47;3.47;;;3.38;;
20177;SDS011;10248;51.218;20.866;2022-09-04T02:06:20;3.33;;;3.22;;
20177;SDS011;10248;51.218;20.866;2022-09-04T02:08:59;3.10;;;3.00;;
20177;SDS011;10248;51.218;20.866;2022-09-04T02:11:37;3.70;;;3.60;;
20177;SDS011;10248;51.218;20.866;2022-09-04T02:14:18;3.70;;;3.60;;
20177;SDS011;10248;51.218;20.866;2022-09-04T02:17:00;3.50;;;3.40;;
20177;SDS011;10248;51.218;20.866;2022-09-04T02:19:36;3.47;;;3.38;;
20177;SDS011;10248;51.218;20.866;2022-09-04T02:22:22;3.30;;;3.20;;
20177;SDS011;10248;51.218;20.866;2022-09-04T02:24:55;3.35;;;3.25;;
20177;SDS011;10248;51.218;20.866;2022-09-04T02:27:29;3.40;;;3.30;;
20177;SDS011;10248;51.218;20.866;2022-09-04T02:30:04;3.30;;;3.20;;
20177;SDS011;10248;51.218;20.866;2022-09-04T02:32:36;2.95;;;2.85;;
20177;SDS011;10248;51.218;20.866;2022-09-04T02:35:09;3.47;;;3.38;;
20177;SDS011;10248;51.218;20.866;2022-09-04T02:37:44;3.72;;;3.63;;
20177;SDS011;10248;51.218;20.866;2022-09-04T02:40:18;3.40;;;3.30;;
20177;SDS011;10248;51.218;20.866;2022-09-04T02:42:51;3.40;;;3.30;;
20177;SDS011;10248;51.218;20.866;2022-09-04T02:45:31;3.45;;;3.35;;
20177;SDS011;10248;51.218;20.866;2022-09-04T02:48:03;3.50;;;3.40;;
20177;SDS011;10248;51.218;20.866;2022-09-04T02:50:39;3.22;;;3.13;;
20177;SDS011;10248;51.218;20.866;2022-09-04T02:53:18;3.38;;;3.28;;
20177;SDS011;10248;51.218;20.866;2022-09-04T02:55:54;3.03;;;2.92;;
20177;SDS011;10248;51.218;20.866;2022-09-04T02:58:28;3.40;;;3.30;;
20177;SDS011;10248;51.218;20.866;2022-09-04T03:01:08;2.95;;;2.85;;
20177;SDS011;10248;51.218;20.866;2022-09-04T03:03:40;3.33;;;3.22;;
20177;SDS011;10248;51.218;20.866;2022-09-04T03:06:11;3.13;;;3.03;;
20177;SDS011;10248;51.218;20.866;2022-09-04T03:08:43;3.40;;;3.30;;
20177;SDS011;10248;51.218;20.866;2022-09-04T03:11:17;3.60;;;3.50;;
20177;SDS011;10248;51.218;20.866;2022-09-04T03:13:48;3.45;;;3.35;;
20177;SDS011;10248;51.218;20.866;2022-09-04T03:16:20;3.30;;;3.20;;
20177;SDS011;10248;51.218;20.866;2022-09-04T03:18:53;3.20;;;3.10;;
20177;SDS011;10248;51.218;20.866;2022-09-04T03:21:28;3.63;;;3.53;;
20177;SDS011;10248;51.218;20.866;2022-09-04T03:24:02;3.08;;;2.97;;
20177;SDS011;10248;51.218;20.866;2022-09-04T03:26:33;3.03;;;2.92;;
20177;SDS011;10248;51.218;20.866;2022-09-04T03:29:04;3.45;;;3.35;;
20177;SDS011;10248;51.218;20.866;2022-09-04T03:31:39;3.17;;;3.08;;
20177;SDS011;10248;51.218;20.866;2022-09-04T03:34:20;3.25;;;3.15;;
20177;SDS011;10248;51.218;20.866;2022-09-04T03:37:03;3.58;;;3.47;;
20177;SDS011;10248;51.218;20.866;2022-09-04T03:39:57;3.25;;;3.15;;
20177;SDS011;10248;51.218;20.866;2022-09-04T03:42:32;3.40;;;3.30;;
20177;SDS011;10248;51.218;20.866;2022-09-04T03:45:07;3.35;;;3.25;;
20177;SDS011;10248;51.218;20.866;2022-09-04T03:47:45;3.28;;;3.17;;
20177;SDS011;10248;51.218;20.866;2022-09-04T03:50:22;3.55;;;3.45;;
20177;SDS011;10248;51.218;20.866;2022-09-04T03:52:54;3.33;;;3.22;;
20177;SDS011;10248;51.218;20.866;2022-09-04T03:55:33;3.50;;;3.40;;
20177;SDS011;10248;51.218;20.866;2022-09-04T03:58:22;3.15;;;3.05;;
20177;SDS011;10248;51.218;20.866;2022-09-04T04:00:56;3.22;;;3.13;;
20177;SDS011;10248;51.218;20.866;2022-09-04T04:03:40;3.28;;;3.17;;
20177;SDS011;10248;51.218;20.866;2022-09-04T04:06:20;3.33;;;3.22;;
20177;SDS011;10248;51.218;20.866;2022-09-04T04:11:44;3.20;;;3.10;;
20177;SDS011;10248;51.218;20.866;2022-09-04T04:14:26;3.35;;;3.25;;
20177;SDS011;10248;51.218;20.866;2022-09-04T04:17:19;3.17;;;3.08;;
20177;SDS011;10248;51.218;20.866;2022-09-04T04:20:01;3.40;;;3.30;;
20177;SDS011;10248;51.218;20.866;2022-09-04T04:22:41;3.13;;;3.03;;
20177;SDS011;10248;51.218;20.866;2022-09-04T04:25:39;3.05;;;2.95;;
20177;SDS011;10248;51.218;20.866;2022-09-04T04:28:22;3.42;;;3.33;;
20177;SDS011;10248;51.218;20.866;2022-09-04T04:31:01;3.33;;;3.22;;
20177;SDS011;10248;51.218;20.866;2022-09-04T04:33:39;3.47;;;3.38;;
20177;SDS011;10248;51.218;20.866;2022-09-04T04:36:14;3.33;;;3.22;;
20177;SDS011;10248;51.218;20.866;2022-09-04T04:38:51;3.50;;;3.40;;
20177;SDS011;10248;51.218;20.866;2022-09-04T04:41:34;3.45;;;3.35;;
20177;SDS011;10248;51.218;20.866;2022-09-04T04:44:29;3.28;;;3.17;;
20177;SDS011;10248;51.218;20.866;2022-09-04T04:47:21;3.33;;;3.22;;
20177;SDS011;10248;51.218;20.866;2022-09-04T04:50:03;3.40;;;3.30;;
20177;SDS011;10248;51.218;20.866;2022-09-04T04:52:38;3.38;;;3.28;;
20177;SDS011;10248;51.218;20.866;2022-09-04T04:55:12;3.38;;;3.28;;
20177;SDS011;10248;51.218;20.866;2022-09-04T04:57:54;3.55;;;3.45;;
20177;SDS011;10248;51.218;20.866;2022-09-04T05:04:14;3.42;;;3.33;;
20177;SDS011;10248;51.218;20.866;2022-09-04T05:06:48;3.40;;;3.30;;
20177;SDS011;10248;51.218;20.866;2022-09-04T05:09:33;3.10;;;3.00;;
20177;SDS011;10248;51.218;20.866;2022-09-04T05:12:05;3.47;;;3.38;;
20177;SDS011;10248;51.218;20.866;2022-09-04T05:14:41;3.28;;;3.17;;
20177;SDS011;10248;51.218;20.866;2022-09-04T05:17:37;3.35;;;3.25;;
20177;SDS011;10248;51.218;20.866;2022-09-04T05:20:31;2.95;;;2.85;;
20177;SDS011;10248;51.218;20.866;2022-09-04T05:23:08;3.40;;;3.30;;
20177;SDS011;10248;51.218;20.866;2022-09-04T05:25:45;3.70;;;3.60;;
20177;SDS011;10248;51.218;20.866;2022-09-04T05:28:22;3.30;;;3.20;;
20177;SDS011;10248;51.218;20.866;2022-09-04T05:30:55;3.38;;;3.28;;
20177;SDS011;10248;51.218;20.866;2022-09-04T05:33:33;3.22;;;3.13;;
20177;SDS011;10248;51.218;20.866;2022-09-04T05:36:08;3.50;;;3.40;;
20177;SDS011;10248;51.218;20.866;2022-09-04T05:38:42;3.80;;;3.70;;
20177;SDS011;10248;51.218;20.866;2022-09-04T05:41:17;3.38;;;3.28;;
20177;SDS011;10248;51.218;20.866;2022-09-04T05:43:58;3.50;;;3.40;;
20177;SDS011;10248;51.218;20.866;2022-09-04T05:46:39;3.65;;;3.55;;
20177;SDS011;10248;51.218;20.866;2022-09-04T05:49:20;3.25;;;3.15;;
20177;SDS011;10248;51.218;20.866;2022-09-04T05:51:58;3.13;;;3.03;;
20177;SDS011;10248;51.218;20.866;2022-09-04T05:57:28;3.20;;;3.10;;
20177;SDS011;10248;51.218;20.866;2022-09-04T06:00:09;3.60;;;3.50;;
20177;SDS011;10248;51.218;20.866;2022-09-04T06:02:46;3.60;;;3.50;;
20177;SDS011;10248;51.218;20.866;2022-09-04T06:09:00;3.70;;;3.60;;
20177;SDS011;10248;51.218;20.866;2022-09-04T06:11:43;3.30;;;3.20;;
20177;SDS011;10248;51.218;20.866;2022-09-04T06:17:29;3.72;;;3.63;;
20177;SDS011;10248;51.218;20.866;2022-09-04T06:20:27;3.50;;;3.40;;
20177;SDS011;10248;51.218;20.866;2022-09-04T06:23:08;3.28;;;3.17;;
20177;SDS011;10248;51.218;20.866;2022-09-04T06:25:55;3.70;;;3.60;;
20177;SDS011;10248;51.218;20.866;2022-09-04T06:28:34;3.45;;;3.35;;
20177;SDS011;10248;51.218;20.866;2022-09-04T06:31:27;3.67;;;3.58;;
20177;SDS011;10248;51.218;20.866;2022-09-04T06:34:05;3.50;;;3.40;;
20177;SDS011;10248;51.218;20.866;2022-09-04T06:36:49;3.47;;;3.38;;
20177;SDS011;10248;51.218;20.866;2022-09-04T06:39:36;3.50;;;3.40;;
20177;SDS011;10248;51.218;20.866;2022-09-04T06:42:13;3.60;;;3.50;;
20177;SDS011;10248;51.218;20.866;2022-09-04T06:45:17;3.58;;;3.47;;
20177;SDS011;10248;51.218;20.866;2022-09-04T06:50:45;3.78;;;3.67;;
20177;SDS011;10248;51.218;20.866;2022-09-04T06:53:23;3.38;;;3.28;;
20177;SDS011;10248;51.218;20.866;2022-09-04T06:56:06;3.47;;;3.38;;
20177;SDS011;10248;51.218;20.866;2022-09-04T06:58:48;3.60;;;3.50;;
20177;SDS011;10248;51.218;20.866;2022-09-04T07:01:29;3.42;;;3.33;;
20177;SDS011;10248;51.218;20.866;2022-09-04T07:04:11;3.47;;;3.38;;
20177;SDS011;10248;51.218;20.866;2022-09-04T07:06:50;3.63;;;3.53;;
20177;SDS011;10248;51.218;20.866;2022-09-04T07:09:25;3.73;;;3.63;;
20177;SDS011;10248;51.218;20.866;2022-09-04T07:12:02;3.90;;;3.80;;
20177;SDS011;10248;51.218;20.866;2022-09-04T07:15:09;3.80;;;3.70;;
20177;SDS011;10248;51.218;20.866;2022-09-04T07:18:07;3.75;;;3.65;;
20177;SDS011;10248;51.218;20.866;2022-09-04T07:20:45;3.78;;;3.67;;
20177;SDS011;10248;51.218;20.866;2022-09-04T07:23:25;3.40;;;3.30;;
20177;SDS011;10248;51.218;20.866;2022-09-04T07:26:01;3.35;;;3.25;;
20177;SDS011;10248;51.218;20.866;2022-09-04T07:28:42;3.40;;;3.30;;
20177;SDS011;10248;51.218;20.866;2022-09-04T07:31:22;3.83;;;3.72;;
20177;SDS011;10248;51.218;20.866;2022-09-04T07:33:55;3.80;;;3.70;;
20177;SDS011;10248;51.218;20.866;2022-09-04T07:36:32;3.60;;;3.50;;
20177;SDS011;10248;51.218;20.866;2022-09-04T07:39:08;3.63;;;3.53;;
20177;SDS011;10248;51.218;20.866;2022-09-04T07:41:41;3.45;;;3.35;;
20177;SDS011;10248;51.218;20.866;2022-09-04T07:44:17;3.70;;;3.60;;
20177;SDS011;10248;51.218;20.866;2022-09-04T07:46:51;3.60;;;3.50;;
20177;SDS011;10248;51.218;20.866;2022-09-04T07:49:25;3.72;;;3.63;;
20177;SDS011;10248;51.218;20.866;2022-09-04T07:52:02;3.60;;;3.50;;
20177;SDS011;10248;51.218;20.866;2022-09-04T07:54:36;3.60;;;3.50;;
20177;SDS011;10248;51.218;20.866;2022-09-04T07:57:27;3.50;;;3.40;;
20177;SDS011;10248;51.218;20.866;2022-09-04T08:00:04;3.70;;;3.60;;
20177;SDS011;10248;51.218;20.866;2022-09-04T08:02:38;3.60;;;3.50;;
20177;SDS011;10248;51.218;20.866;2022-09-04T08:05:26;3.63;;;3.53;;
20177;SDS011;10248;51.218;20.866;2022-09-04T08:11:06;3.90;;;3.80;;
20177;SDS011;10248;51.218;20.866;2022-09-04T08:13:50;3.60;;;3.50;;
20177;SDS011;10248;51.218;20.866;2022-09-04T08:16:40;3.85;;;3.75;;
20177;SDS011;10248;51.218;20.866;2022-09-04T08:19:13;4.00;;;3.90;;
20177;SDS011;10248;51.218;20.866;2022-09-04T08:21:46;3.88;;;3.78;;
20177;SDS011;10248;51.218;20.866;2022-09-04T08:27:27;3.88;;;3.78;;
20177;SDS011;10248;51.218;20.866;2022-09-04T08:30:10;3.65;;;3.55;;
20177;SDS011;10248;51.218;20.866;2022-09-04T08:35:53;3.80;;;3.70;;
20177;SDS011;10248;51.218;20.866;2022-09-04T08:38:26;3.60;;;3.50;;
20177;SDS011;10248;51.218;20.866;2022-09-04T08:41:25;4.03;;;3.92;;
20177;SDS011;10248;51.218;20.866;2022-09-04T08:44:32;3.70;;;3.60;;
20177;SDS011;10248;51.218;20.866;2022-09-04T08:47:35;3.83;;;3.72;;
20177;SDS011;10248;51.218;20.866;2022-09-04T08:56:22;3.90;;;3.80;;
20177;SDS011;10248;51.218;20.866;2022-09-04T09:08:20;3.50;;;3.40;;
20177;SDS011;10248;51.218;20.866;2022-09-04T09:11:01;3.83;;;3.72;;
20177;SDS011;10248;51.218;20.866;2022-09-04T09:13:51;3.60;;;3.50;;
20177;SDS011;10248;51.218;20.866;2022-09-04T09:16:35;3.92;;;3.83;;
20177;SDS011;10248;51.218;20.866;2022-09-04T09:19:19;3.90;;;3.80;;
20177;SDS011;10248;51.218;20.866;2022-09-04T09:22:03;3.88;;;3.78;;
20177;SDS011;10248;51.218;20.866;2022-09-04T09:27:39;4.18;;;4.07;;
20177;SDS011;10248;51.218;20.866;2022-09-04T09:30:17;3.80;;;3.70;;
20177;SDS011;10248;51.218;20.866;2022-09-04T09:33:06;3.55;;;3.45;;
20177;SDS011;10248;51.218;20.866;2022-09-04T09:36:03;3.67;;;3.58;;
20177;SDS011;10248;51.218;20.866;2022-09-04T09:38:58;3.90;;;3.80;;
20177;SDS011;10248;51.218;20.866;2022-09-04T09:45:00;4.10;;;4.00;;
20177;SDS011;10248;51.218;20.866;2022-09-04T09:47:55;4.00;;;3.90;;
20177;SDS011;10248;51.218;20.866;2022-09-04T09:50:47;3.90;;;3.80;;
20177;SDS011;10248;51.218;20.866;2022-09-04T09:53:29;4.10;;;4.00;;
20177;SDS011;10248;51.218;20.866;2022-09-04T09:56:24;3.78;;;3.67;;
20177;SDS011;10248;51.218;20.866;2022-09-04T10:02:18;3.53;;;3.42;;
20177;SDS011;10248;51.218;20.866;2022-09-04T10:05:12;3.75;;;3.65;;
20177;SDS011;10248;51.218;20.866;2022-09-04T10:11:08;4.13;;;4.03;;
20177;SDS011;10248;51.218;20.866;2022-09-04T10:14:06;4.00;;;3.90;;
20177;SDS011;10248;51.218;20.866;2022-09-04T10:17:01;4.00;;;3.90;;
20177;SDS011;10248;51.218;20.866;2022-09-04T10:23:14;3.80;;;3.70;;
20177;SDS011;10248;51.218;20.866;2022-09-04T10:28:39;4.40;;;4.20;;
20177;SDS011;10248;51.218;20.866;2022-09-04T10:31:25;4.10;;;4.00;;
20177;SDS011;10248;51.218;20.866;2022-09-04T10:34:07;3.88;;;3.78;;
20177;SDS011;10248;51.218;20.866;2022-09-04T10:36:52;3.80;;;3.70;;
20177;SDS011;10248;51.218;20.866;2022-09-04T10:39:28;3.80;;;3.70;;
20177;SDS011;10248;51.218;20.866;2022-09-04T10:42:23;3.60;;;3.50;;
20177;SDS011;10248;51.218;20.866;2022-09-04T10:45:03;3.70;;;3.60;;
20177;SDS011;10248;51.218;20.866;2022-09-04T10:47:44;3.90;;;3.80;;
20177;SDS011;10248;51.218;20.866;2022-09-04T10:50:26;3.67;;;3.58;;
20177;SDS011;10248;51.218;20.866;2022-09-04T10:53:27;3.75;;;3.65;;
20177;SDS011;10248;51.218;20.866;2022-09-04T10:56:07;3.90;;;3.80;;
20177;SDS011;10248;51.218;20.866;2022-09-04T10:58:52;3.95;;;3.85;;
20177;SDS011;10248;51.218;20.866;2022-09-04T11:10:39;3.60;;;3.50;;
20177;SDS011;10248;51.218;20.866;2022-09-04T11:13:36;3.55;;;3.45;;
20177;SDS011;10248;51.218;20.866;2022-09-04T11:16:22;3.90;;;3.80;;
20177;SDS011;10248;51.218;20.866;2022-09-04T11:19:03;3.72;;;3.63;;
20177;SDS011;10248;51.218;20.866;2022-09-04T11:22:10;3.90;;;3.80;;
20177;SDS011;10248;51.218;20.866;2022-09-04T11:25:18;4.00;;;3.90;;
20177;SDS011;10248;51.218;20.866;2022-09-04T11:28:32;3.95;;;3.85;;
20177;SDS011;10248;51.218;20.866;2022-09-04T11:31:13;3.90;;;3.80;;
20177;SDS011;10248;51.218;20.866;2022-09-04T11:33:59;3.55;;;3.45;;
20177;SDS011;10248;51.218;20.866;2022-09-04T11:36:52;3.50;;;3.40;;
20177;SDS011;10248;51.218;20.866;2022-09-04T11:42:47;4.18;;;4.07;;
20177;SDS011;10248;51.218;20.866;2022-09-04T11:48:21;4.10;;;4.00;;
20177;SDS011;10248;51.218;20.866;2022-09-04T11:51:26;4.40;;;4.20;;
20177;SDS011;10248;51.218;20.866;2022-09-04T11:54:10;4.10;;;4.00;;
20177;SDS011;10248;51.218;20.866;2022-09-04T11:57:06;4.05;;;3.95;;
20177;SDS011;10248;51.218;20.866;2022-09-04T11:59:42;4.05;;;3.95;;
20177;SDS011;10248;51.218;20.866;2022-09-04T12:02:29;4.07;;;3.97;;
20177;SDS011;10248;51.218;20.866;2022-09-04T12:05:19;4.30;;;4.15;;
20177;SDS011;10248;51.218;20.866;2022-09-04T12:07:56;4.05;;;3.95;;
20177;SDS011;10248;51.218;20.866;2022-09-04T12:10:33;4.07;;;3.97;;
20177;SDS011;10248;51.218;20.866;2022-09-04T12:13:23;3.92;;;3.83;;
20177;SDS011;10248;51.218;20.866;2022-09-04T12:25:31;4.40;;;4.20;;
20177;SDS011;10248;51.218;20.866;2022-09-04T12:34:34;4.20;;;4.10;;
20177;SDS011;10248;51.218;20.866;2022-09-04T12:42:51;4.60;;;4.40;;
20177;SDS011;10248;51.218;20.866;2022-09-04T12:45:23;4.40;;;4.20;;
20177;SDS011;10248;51.218;20.866;2022-09-04T12:48:04;3.70;;;3.60;;
20177;SDS011;10248;51.218;20.866;2022-09-04T12:50:39;4.07;;;3.97;;
20177;SDS011;10248;51.218;20.866;2022-09-04T12:53:20;3.92;;;3.83;;
20177;SDS011;10248;51.218;20.866;2022-09-04T12:55:59;4.00;;;3.90;;
20177;SDS011;10248;51.218;20.866;2022-09-04T12:58:38;4.20;;;4.10;;
20177;SDS011;10248;51.218;20.866;2022-09-04T13:01:17;4.07;;;3.97;;
20177;SDS011;10248;51.218;20.866;2022-09-04T13:03:52;3.90;;;3.80;;
20177;SDS011;10248;51.218;20.866;2022-09-04T13:06:29;4.00;;;3.90;;
20177;SDS011;10248;51.218;20.866;2022-09-04T13:09:11;4.00;;;3.90;;
20177;SDS011;10248;51.218;20.866;2022-09-04T13:11:48;3.67;;;3.58;;
20177;SDS011;10248;51.218;20.866;2022-09-04T13:17:29;3.90;;;3.80;;
20177;SDS011;10248;51.218;20.866;2022-09-04T13:20:02;3.95;;;3.85;;
20177;SDS011;10248;51.218;20.866;2022-09-04T13:22:39;3.88;;;3.78;;
20177;SDS011;10248;51.218;20.866;2022-09-04T13:25:13;4.10;;;4.00;;
20177;SDS011;10248;51.218;20.866;2022-09-04T13:27:46;4.10;;;4.00;;
20177;SDS011;10248;51.218;20.866;2022-09-04T13:30:22;4.20;;;4.10;;
20177;SDS011;10248;51.218;20.866;2022-09-04T13:38:47;4.00;;;3.90;;
20177;SDS011;10248;51.218;20.866;2022-09-04T13:41:42;4.20;;;4.10;;
20177;SDS011;10248;51.218;20.866;2022-09-04T13:47:28;4.00;;;3.90;;
20177;SDS011;10248;51.218;20.866;2022-09-04T13:50:02;3.90;;;3.80;;
20177;SDS011;10248;51.218;20.866;2022-09-04T13:52:37;4.10;;;4.00;;
20177;SDS011;10248;51.218;20.866;2022-09-04T13:55:11;4.00;;;3.90;;
20177;SDS011;10248;51.218;20.866;2022-09-04T13:57:43;4.10;;;4.00;;
20177;SDS011;10248;51.218;20.866;2022-09-04T14:00:13;4.20;;;4.10;;
20177;SDS011;10248;51.218;20.866;2022-09-04T14:02:43;4.07;;;3.97;;
20177;SDS011;10248;51.218;20.866;2022-09-04T14:05:14;4.03;;;3.92;;
20177;SDS011;10248;51.218;20.866;2022-09-04T14:07:56;4.10;;;4.00;;
20177;SDS011;10248;51.218;20.866;2022-09-04T14:10:28;4.10;;;4.00;;
20177;SDS011;10248;51.218;20.866;2022-09-04T14:13:08;4.55;;;4.35;;
20177;SDS011;10248;51.218;20.866;2022-09-04T14:15:47;4.40;;;4.20;;
20177;SDS011;10248;51.218;20.866;2022-09-04T14:18:28;4.47;;;4.27;;
20177;SDS011;10248;51.218;20.866;2022-09-04T14:21:12;4.40;;;4.20;;
20177;SDS011;10248;51.218;20.866;2022-09-04T14:23:44;4.50;;;4.30;;
20177;SDS011;10248;51.218;20.866;2022-09-04T14:26:21;4.18;;;4.07;;
20177;SDS011;10248;51.218;20.866;2022-09-04T14:28:55;4.15;;;4.05;;
20177;SDS011;10248;51.218;20.866;2022-09-04T14:31:31;4.00;;;3.90;;
20177;SDS011;10248;51.218;20.866;2022-09-04T14:34:08;4.38;;;4.20;;
20177;SDS011;10248;51.218;20.866;2022-09-04T14:36:43;4.00;;;3.90;;
20177;SDS011;10248;51.218;20.866;2022-09-04T14:39:20;3.90;;;3.80;;
20177;SDS011;10248;51.218;20.866;2022-09-04T14:41:59;4.10;;;4.00;;
20177;SDS011;10248;51.218;20.866;2022-09-04T14:44:46;4.13;;;4.03;;
20177;SDS011;10248;51.218;20.866;2022-09-04T14:47:25;4.40;;;4.20;;
20177;SDS011;10248;51.218;20.866;2022-09-04T14:49:57;4.53;;;4.32;;
20177;SDS011;10248;51.218;20.866;2022-09-04T14:52:27;4.40;;;4.20;;
20177;SDS011;10248;51.218;20.866;2022-09-04T14:55:04;4.50;;;4.30;;
20177;SDS011;10248;51.218;20.866;2022-09-04T14:57:36;4.50;;;4.30;;
20177;SDS011;10248;51.218;20.866;2022-09-04T15:00:08;4.40;;;4.20;;
20177;SDS011;10248;51.218;20.866;2022-09-04T15:02:41;4.13;;;4.03;;
20177;SDS011;10248;51.218;20.866;2022-09-04T15:05:14;4.50;;;4.30;;
20177;SDS011;10248;51.218;20.866;2022-09-04T15:07:48;4.40;;;4.20;;
20177;SDS011;10248;51.218;20.866;2022-09-04T15:10:18;4.00;;;3.90;;
20177;SDS011;10248;51.218;20.866;2022-09-04T15:13:02;4.50;;;4.30;;
20177;SDS011;10248;51.218;20.866;2022-09-04T15:15:49;4.00;;;3.90;;
20177;SDS011;10248;51.218;20.866;2022-09-04T15:18:20;3.67;;;3.58;;
20177;SDS011;10248;51.218;20.866;2022-09-04T15:20:52;3.90;;;3.80;;
20177;SDS011;10248;51.218;20.866;2022-09-04T15:23:25;3.85;;;3.75;;
20177;SDS011;10248;51.218;20.866;2022-09-04T15:25:54;4.00;;;3.90;;
20177;SDS011;10248;51.218;20.866;2022-09-04T15:28:38;4.00;;;3.90;;
20177;SDS011;10248;51.218;20.866;2022-09-04T15:31:10;4.00;;;3.90;;
20177;SDS011;10248;51.218;20.866;2022-09-04T15:33:41;4.10;;;4.00;;
20177;SDS011;10248;51.218;20.866;2022-09-04T15:36:13;4.10;;;4.00;;
20177;SDS011;10248;51.218;20.866;2022-09-04T15:38:46;4.13;;;4.03;;
20177;SDS011;10248;51.218;20.866;2022-09-04T15:41:18;4.00;;;3.90;;
20177;SDS011;10248;51.218;20.866;2022-09-04T15:43:51;3.95;;;3.85;;
20177;SDS011;10248;51.218;20.866;2022-09-04T15:46:26;3.97;;;3.88;;
20177;SDS011;10248;51.218;20.866;2022-09-04T15:49:02;4.22;;;4.13;;
20177;SDS011;10248;51.218;20.866;2022-09-04T15:51:45;4.20;;;4.10;;
20177;SDS011;10248;51.218;20.866;2022-09-04T15:54:20;3.80;;;3.70;;
20177;SDS011;10248;51.218;20.866;2022-09-04T15:56:55;3.88;;;3.78;;
20177;SDS011;10248;51.218;20.866;2022-09-04T15:59:30;3.92;;;3.83;;
20177;SDS011;10248;51.218;20.866;2022-09-04T16:02:10;3.80;;;3.70;;
20177;SDS011;10248;51.218;20.866;2022-09-04T16:04:50;4.03;;;3.92;;
20177;SDS011;10248;51.218;20.866;2022-09-04T16:07:35;4.20;;;4.10;;
20177;SDS011;10248;51.218;20.866;2022-09-04T16:10:11;4.00;;;3.90;;
20177;SDS011;10248;51.218;20.866;2022-09-04T16:12:48;3.80;;;3.70;;
20177;SDS011;10248;51.218;20.866;2022-09-04T16:15:24;4.00;;;3.90;;
20177;SDS011;10248;51.218;20.866;2022-09-04T16:17:56;3.90;;;3.80;;
20177;SDS011;10248;51.218;20.866;2022-09-04T16:22:59;4.15;;;4.05;;
20177;SDS011;10248;51.218;20.866;2022-09-04T16:25:30;4.07;;;3.97;;
20177;SDS011;10248;51.218;20.866;2022-09-04T16:28:00;4.20;;;4.10;;
20177;SDS011;10248;51.218;20.866;2022-09-04T16:30:36;3.92;;;3.83;;
20177;SDS011;10248;51.218;20.866;2022-09-04T16:33:07;3.90;;;3.80;;
20177;SDS011;10248;51.218;20.866;2022-09-04T16:35:56;3.97;;;3.88;;
20177;SDS011;10248;51.218;20.866;2022-09-04T16:38:26;4.10;;;4.00;;
20177;SDS011;10248;51.218;20.866;2022-09-04T16:40:59;4.10;;;4.00;;
20177;SDS011;10248;51.218;20.866;2022-09-04T16:43:31;3.90;;;3.80;;
20177;SDS011;10248;51.218;20.866;2022-09-04T16:46:06;3.90;;;3.80;;
20177;SDS011;10248;51.218;20.866;2022-09-04T16:48:38;3.80;;;3.70;;
20177;SDS011;10248;51.218;20.866;2022-09-04T16:51:10;3.70;;;3.60;;
20177;SDS011;10248;51.218;20.866;2022-09-04T16:54:07;3.83;;;3.72;;
20177;SDS011;10248;51.218;20.866;2022-09-04T16:56:40;3.80;;;3.70;;
20177;SDS011;10248;51.218;20.866;2022-09-04T16:59:19;3.80;;;3.70;;
20177;SDS011;10248;51.218;20.866;2022-09-04T17:01:52;3.70;;;3.60;;
20177;SDS011;10248;51.218;20.866;2022-09-04T17:04:32;3.80;;;3.70;;
20177;SDS011;10248;51.218;20.866;2022-09-04T17:07:10;3.97;;;3.88;;
20177;SDS011;10248;51.218;20.866;2022-09-04T17:09:44;4.00;;;3.90;;
20177;SDS011;10248;51.218;20.866;2022-09-04T17:12:21;3.95;;;3.85;;
20177;SDS011;10248;51.218;20.866;2022-09-04T17:14:54;3.80;;;3.70;;
20177;SDS011;10248;51.218;20.866;2022-09-04T17:17:27;3.70;;;3.60;;
20177;SDS011;10248;51.218;20.866;2022-09-04T17:20:01;4.00;;;3.90;;
20177;SDS011;10248;51.218;20.866;2022-09-04T17:22:38;3.80;;;3.70;;
20177;SDS011;10248;51.218;20.866;2022-09-04T17:25:30;3.22;;;3.13;;
20177;SDS011;10248;51.218;20.866;2022-09-04T17:31:38;4.13;;;4.03;;
20177;SDS011;10248;51.218;20.866;2022-09-04T17:34:14;4.10;;;4.00;;
20177;SDS011;10248;51.218;20.866;2022-09-04T17:37:07;4.10;;;4.00;;
20177;SDS011;10248;51.218;20.866;2022-09-04T17:39:58;3.80;;;3.70;;
20177;SDS011;10248;51.218;20.866;2022-09-04T17:43:01;3.63;;;3.53;;
20177;SDS011;10248;51.218;20.866;2022-09-04T17:45:52;3.83;;;3.72;;
20177;SDS011;10248;51.218;20.866;2022-09-04T17:48:28;4.00;;;3.90;;
20177;SDS011;10248;51.218;20.866;2022-09-04T17:51:00;3.90;;;3.80;;